Time;durP1;ratioP1;P1;durP2;ratioP2;P2;SDS_P1;SDS_P2;PMS_P1;PMS_P2;Temp;Humidity;BMP_temperature;BMP_pressure;BME280_temperature;BME280_humidity;BME280_pressure;Samples;Min_cycle;Max_cycle;Signal;HPM_P1;HPM_P2
2023/10/04 00:00:39;;;;;;;8.27;2.90;;;;;;;11.99;100.00;102434.47;5052478;28;20395;-51
2023/10/04 00:03:05;;;;;;;6.38;2.45;;;;;;;11.99;100.00;102434.47;5052913;28;20132;-51
2023/10/04 00:05:31;;;;;;;11.25;2.60;;;;;;;11.98;100.00;102431.88;5053250;28;20044;-52
2023/10/04 00:07:56;;;;;;;12.00;3.40;;;;;;;11.96;100.00;102429.31;5052987;28;20064;-53
2023/10/04 00:10:25;;;;;;;11.68;2.78;;;;;;;11.97;100.00;102439.03;5052305;28;20061;-50
2023/10/04 00:12:52;;;;;;;12.68;3.13;;;;;;;11.96;100.00;102442.63;5052701;28;20032;-51
2023/10/04 00:15:20;;;;;;;10.55;3.00;;;;;;;11.97;100.00;102438.16;5051713;28;20029;-52
2023/10/04 00:17:46;;;;;;;8.25;2.78;;;;;;;11.98;100.00;102446.03;5053083;28;20078;-52
2023/10/04 00:20:14;;;;;;;9.70;2.80;;;;;;;11.98;100.00;102446.03;5049314;28;20078;-51
2023/10/04 00:22:40;;;;;;;10.90;3.00;;;;;;;12.01;100.00;102448.53;5052745;28;20025;-52
2023/10/04 00:25:11;;;;;;;7.22;2.60;;;;;;;12.02;100.00;102447.59;5052486;28;20036;-51
2023/10/04 00:27:36;;;;;;;13.93;3.25;;;;;;;12.06;100.00;102440.28;5052688;28;20489;-50
2023/10/04 00:30:02;;;;;;;10.00;3.03;;;;;;;12.09;100.00;102436.59;5051776;28;20021;-50
2023/10/04 00:32:29;;;;;;;13.45;2.97;;;;;;;12.11;100.00;102442.69;5049077;28;20028;-50
2023/10/04 00:34:54;;;;;;;10.52;3.60;;;;;;;12.11;100.00;102437.38;5052791;28;20501;-53
2023/10/04 00:37:19;;;;;;;17.88;3.28;;;;;;;12.15;100.00;102444.22;5052464;28;20017;-50
2023/10/04 00:39:45;;;;;;;10.77;3.08;;;;;;;12.16;100.00;102438.81;5047881;28;20182;-52
2023/10/04 00:42:10;;;;;;;9.43;3.17;;;;;;;12.17;100.00;102435.22;5052218;28;20028;-50
2023/10/04 00:44:36;;;;;;;9.25;2.75;;;;;;;12.16;100.00;102444.13;5050156;28;20048;-50
2023/10/04 00:47:09;;;;;;;10.85;3.03;;;;;;;12.11;100.00;102440.88;5052497;28;20044;-52
2023/10/04 00:49:34;;;;;;;10.35;3.00;;;;;;;12.16;100.00;102452.13;5048333;28;20036;-51
2023/10/04 00:52:08;;;;;;;9.60;2.80;;;;;;;12.14;100.00;102454.03;5052130;28;20025;-50
2023/10/04 00:54:34;;;;;;;14.23;3.30;;;;;;;12.13;100.00;102449.63;5051639;28;20120;-53
2023/10/04 00:57:00;;;;;;;11.40;3.25;;;;;;;12.11;100.00;102456.88;5050107;28;20032;-51
2023/10/04 00:59:25;;;;;;;10.30;2.75;;;;;;;12.11;100.00;102466.66;5051580;28;20115;-50
2023/10/04 01:01:52;;;;;;;11.32;3.10;;;;;;;12.08;100.00;102470.34;5050898;28;20021;-50
2023/10/04 01:04:18;;;;;;;8.57;2.90;;;;;;;12.06;100.00;102464.25;5051072;28;20060;-53
2023/10/04 01:06:44;;;;;;;12.02;3.22;;;;;;;12.07;100.00;102468.63;5049931;28;20111;-52
2023/10/04 01:09:10;;;;;;;11.48;2.92;;;;;;;12.06;100.00;102468.72;5049794;28;20132;-52
2023/10/04 01:11:44;;;;;;;10.60;3.03;;;;;;;12.05;100.00;102472.34;5052130;28;20497;-50
2023/10/04 01:14:18;;;;;;;13.15;3.13;;;;;;;12.02;100.00;102465.38;5051898;28;20033;-51
2023/10/04 01:16:44;;;;;;;16.67;3.30;;;;;;;12.02;100.00;102466.25;5049879;28;20029;-51
2023/10/04 01:19:14;;;;;;;9.20;2.83;;;;;;;11.99;100.00;102468.19;5051193;28;20391;-50
2023/10/04 01:21:40;;;;;;;11.38;3.33;;;;;;;11.99;100.00;102484.19;5052092;28;20025;-51
2023/10/04 01:24:09;;;;;;;8.65;3.13;;;;;;;11.97;100.00;102475.44;5051767;28;20044;-52
2023/10/04 01:26:37;;;;;;;13.82;3.25;;;;;;;11.95;100.00;102472.84;5051564;28;20033;-51
2023/10/04 01:29:08;;;;;;;9.20;3.25;;;;;;;11.95;100.00;102480.84;5051570;28;20025;-54
2023/10/04 01:31:35;;;;;;;10.38;3.20;;;;;;;11.93;100.00;102479.22;5047800;28;20025;-53
2023/10/04 01:34:01;;;;;;;7.50;2.90;;;;;;;11.92;100.00;102478.34;5051422;28;20032;-53
2023/10/04 01:36:26;;;;;;;11.25;3.38;;;;;;;11.91;100.00;102483.75;5051697;28;20021;-52
2023/10/04 01:38:53;;;;;;;14.50;3.50;;;;;;;11.90;100.00;102472.22;5050676;28;20087;-52
2023/10/04 01:41:19;;;;;;;11.18;3.05;;;;;;;11.89;100.00;102475.84;5051422;28;20056;-52
2023/10/04 01:43:45;;;;;;;9.82;3.15;;;;;;;11.88;100.00;102474.13;5051460;28;20132;-51
2023/10/04 01:46:12;;;;;;;13.95;3.33;;;;;;;11.88;100.00;102490.09;5051791;28;20061;-52
2023/10/04 01:48:37;;;;;;;11.40;3.30;;;;;;;11.87;100.00;102483.03;5050506;28;20037;-52
2023/10/04 01:51:04;;;;;;;14.38;4.00;;;;;;;11.88;100.00;102487.44;5049990;28;20436;-53
2023/10/04 01:53:29;;;;;;;10.85;3.35;;;;;;;11.88;100.00;102479.44;5051055;28;20087;-50
2023/10/04 01:55:55;;;;;;;13.52;3.10;;;;;;;11.89;100.00;102482.94;5050586;28;20427;-50
2023/10/04 01:58:24;;;;;;;13.80;3.28;;;;;;;11.85;100.00;102475.13;5051582;28;20459;-50
2023/10/04 02:00:53;;;;;;;10.05;3.03;;;;;;;11.82;100.00;102466.47;5048380;28;20032;-50
2023/10/04 02:03:20;;;;;;;9.38;2.85;;;;;;;11.85;100.00;102468.94;5051628;28;20028;-50
2023/10/04 02:05:48;;;;;;;15.75;3.65;;;;;;;11.85;100.00;102466.28;5051282;28;20033;-49
2023/10/04 02:08:14;;;;;;;8.48;2.83;;;;;;;11.86;100.00;102473.34;5051336;28;20029;-52
2023/10/04 02:10:45;;;;;;;14.20;3.25;;;;;;;11.85;100.00;102475.13;5050972;28;20060;-51
2023/10/04 02:13:17;;;;;;;12.27;3.42;;;;;;;11.85;100.00;102471.63;5046320;28;20387;-51
2023/10/04 02:15:52;;;;;;;9.88;3.72;;;;;;;11.87;100.00;102476.84;5043877;28;20030;-51
2023/10/04 02:18:19;;;;;;;11.55;2.95;;;;;;;11.85;100.00;102474.28;5049587;28;20084;-50
2023/10/04 02:20:49;;;;;;;10.85;3.20;;;;;;;11.85;100.00;102476.94;5051142;28;20025;-52
2023/10/04 02:23:18;;;;;;;;;;;;;;;11.92;100.00;102472.16;5050681;28;20033;-50
2023/10/04 02:25:44;;;;;;;10.52;3.10;;;;;;;11.86;100.00;102476.00;5049787;28;19916;-50
2023/10/04 02:28:11;;;;;;;13.65;3.30;;;;;;;11.82;100.00;102463.78;5050978;28;20449;-53
2023/10/04 02:30:40;;;;;;;13.27;3.00;;;;;;;11.88;100.00;102470.59;5043778;28;20531;-50
2023/10/04 02:33:09;;;;;;;9.07;3.08;;;;;;;11.87;100.00;102468.88;5051116;28;20053;-52
2023/10/04 02:35:41;;;;;;;11.55;3.10;;;;;;;11.85;100.00;102472.47;5051008;28;20100;-51
2023/10/04 02:38:16;;;;;;;12.50;3.67;;;;;;;11.85;100.00;102469.81;5048212;28;20041;-53
2023/10/04 02:40:43;;;;;;;15.82;3.85;;;;;;;11.85;100.00;102475.13;5051599;28;20467;-50
2023/10/04 02:43:09;;;;;;;12.05;3.40;;;;;;;11.87;100.00;102477.72;5050437;28;20076;-51
2023/10/04 02:45:36;;;;;;;13.65;3.10;;;;;;;11.86;100.00;102481.34;5050170;28;20071;-50
2023/10/04 02:48:04;;;;;;;11.43;3.45;;;;;;;11.86;100.00;102481.34;5050859;28;20029;-51
2023/10/04 02:50:29;;;;;;;9.65;3.20;;;;;;;11.85;100.00;102477.78;5050824;28;20021;-52
2023/10/04 02:52:56;;;;;;;13.57;3.47;;;;;;;11.84;100.00;102480.56;5052148;28;20032;-50
2023/10/04 02:55:21;;;;;;;11.15;3.40;;;;;;;11.84;100.00;102480.56;5053699;28;20036;-50
2023/10/04 02:57:51;;;;;;;12.82;3.53;;;;;;;11.83;100.00;102484.16;5054443;28;20025;-50
2023/10/04 03:00:19;;;;;;;11.48;2.97;;;;;;;11.84;100.00;102494.72;5054178;28;20029;-51
2023/10/04 03:02:53;;;;;;;13.40;3.53;;;;;;;11.82;100.00;102501.06;5051209;28;20016;-50
2023/10/04 03:05:19;;;;;;;10.23;3.15;;;;;;;11.82;100.00;102496.63;5053953;28;20055;-52
2023/10/04 03:07:47;;;;;;;11.85;3.10;;;;;;;11.82;100.00;102495.75;5054412;28;20040;-51
2023/10/04 03:10:14;;;;;;;9.65;3.00;;;;;;;11.81;100.00;102492.22;5050512;28;20045;-53
2023/10/04 03:12:41;;;;;;;13.35;4.03;;;;;;;11.81;100.00;102497.56;5053852;28;20086;-53
2023/10/04 03:15:07;;;;;;;10.00;3.00;;;;;;;11.79;100.00;102503.91;5054161;28;20021;-49
2023/10/04 03:17:32;;;;;;;10.55;3.30;;;;;;;11.79;100.00;102503.91;5053640;28;20107;-52
2023/10/04 03:19:58;;;;;;;13.10;3.30;;;;;;;11.76;100.00;102507.59;5050709;28;20141;-52
2023/10/04 03:22:23;;;;;;;15.70;3.42;;;;;;;11.74;100.00;102511.28;5048832;28;20048;-53
2023/10/04 03:24:53;;;;;;;13.30;3.40;;;;;;;11.73;100.00;102510.44;5053997;28;20033;-51
2023/10/04 03:27:21;;;;;;;12.48;2.88;;;;;;;11.71;100.00;102511.44;5054271;28;20021;-53
2023/10/04 03:29:51;;;;;;;13.00;3.17;;;;;;;11.66;100.00;102512.56;5050348;28;20492;-50
2023/10/04 03:32:18;;;;;;;12.02;3.58;;;;;;;11.66;100.00;102514.38;5052245;28;20045;-52
2023/10/04 03:34:44;;;;;;;13.57;3.33;;;;;;;11.62;100.00;102504.81;5053946;28;20472;-51
2023/10/04 03:37:09;;;;;;;9.82;3.40;;;;;;;11.60;100.00;102504.91;5054569;28;20090;-50
2023/10/04 03:39:39;;;;;;;14.10;3.53;;;;;;;11.58;100.00;102500.63;5053396;28;20017;-52
2023/10/04 03:42:05;;;;;;;16.27;3.85;;;;;;;11.53;100.00;102495.56;5053478;28;20090;-51
2023/10/04 03:44:30;;;;;;;11.35;3.70;;;;;;;11.53;100.00;102502.69;5053542;28;20049;-51
2023/10/04 03:46:57;;;;;;;11.35;3.20;;;;;;;11.50;100.00;102511.69;5053711;28;20137;-53
2023/10/04 03:49:24;;;;;;;12.20;3.80;;;;;;;11.45;100.00;102505.75;5053321;28;20096;-54
2023/10/04 03:51:52;;;;;;;10.15;3.38;;;;;;;11.43;100.00;102505.81;5053644;28;20033;-50
2023/10/04 03:54:17;;;;;;;13.20;3.70;;;;;;;11.41;100.00;102504.22;5053095;28;20025;-51
2023/10/04 03:56:43;;;;;;;8.93;3.65;;;;;;;11.38;100.00;102491.91;5052404;28;20108;-51
2023/10/04 03:59:08;;;;;;;14.05;3.30;;;;;;;11.37;100.00;102492.84;5052360;28;20025;-50
2023/10/04 04:01:34;;;;;;;14.10;3.42;;;;;;;11.34;100.00;102484.16;5053438;28;20067;-50
2023/10/04 04:04:03;;;;;;;17.30;4.20;;;;;;;11.30;100.00;102481.66;5053190;28;20033;-52
2023/10/04 04:06:28;;;;;;;;;;;;;;;11.37;100.00;102490.19;5052611;28;20482;-50
2023/10/04 04:08:56;;;;;;;13.00;3.08;;;;;;;11.28;100.00;102491.53;5053117;28;19919;-51
2023/10/04 04:11:22;;;;;;;12.73;3.28;;;;;;;11.25;100.00;102496.16;5052484;28;20051;-50
2023/10/04 04:13:48;;;;;;;11.40;3.47;;;;;;;11.21;100.00;102498.13;5053228;28;20029;-52
2023/10/04 04:16:17;;;;;;;15.43;3.50;;;;;;;11.20;100.00;102492.91;5052288;28;20540;-53
2023/10/04 04:18:42;;;;;;;13.32;4.63;;;;;;;11.17;100.00;102493.06;5052195;28;20082;-50
2023/10/04 04:21:07;;;;;;;15.68;4.03;;;;;;;11.14;100.00;102485.22;5052067;28;20474;-50
2023/10/04 04:23:34;;;;;;;15.38;3.25;;;;;;;11.10;100.00;102485.38;5051328;28;20025;-50
2023/10/04 04:26:00;;;;;;;13.77;4.15;;;;;;;11.08;100.00;102486.44;5052077;28;20025;-50
2023/10/04 04:28:26;;;;;;;14.65;3.92;;;;;;;11.07;100.00;102479.38;5051487;28;20017;-52
2023/10/04 04:30:53;;;;;;;15.35;4.40;;;;;;;11.03;100.00;102483.16;5052089;28;20025;-50
2023/10/04 04:33:19;;;;;;;12.75;3.55;;;;;;;11.03;100.00;102467.19;5052534;28;20051;-50
2023/10/04 04:38:19;;;;;;;13.98;3.72;;;;;;;10.99;100.00;102484.22;5052295;28;20120;-50
2023/10/04 04:40:49;;;;;;;9.63;3.35;;;;;;;10.91;100.00;102482.84;5051849;28;20028;-52
2023/10/04 04:43:26;;;;;;;12.93;4.20;;;;;;;10.93;100.00;102483.63;5051419;28;20492;-55
2023/10/04 04:45:53;;;;;;;11.43;3.90;;;;;;;10.90;100.00;102488.25;5049845;28;20033;-51
2023/10/04 04:48:24;;;;;;;16.05;4.47;;;;;;;10.90;100.00;102478.44;5052365;28;20040;-49
2023/10/04 04:50:54;;;;;;;18.25;4.20;;;;;;;10.89;100.00;102478.53;5047319;28;20497;-50
2023/10/04 04:53:22;;;;;;;9.38;3.50;;;;;;;10.86;100.00;102481.38;5052634;28;20172;-49
2023/10/04 04:55:51;;;;;;;15.38;3.92;;;;;;;10.85;100.00;102490.28;5049536;28;20498;-49
2023/10/04 04:58:23;;;;;;;11.83;3.83;;;;;;;10.82;100.00;102482.47;5048837;28;20040;-50
2023/10/04 05:00:56;;;;;;;11.02;3.75;;;;;;;10.80;100.00;102476.38;5052112;28;20114;-50
2023/10/04 05:03:24;;;;;;;12.77;3.72;;;;;;;10.78;100.00;102480.91;5048807;28;20494;-51
2023/10/04 05:05:49;;;;;;;11.45;4.05;;;;;;;10.74;100.00;102480.19;5051379;28;20040;-50
2023/10/04 05:08:16;;;;;;;13.02;3.80;;;;;;;10.72;100.00;102490.91;5049853;28;20029;-52
2023/10/04 05:10:44;;;;;;;10.55;3.70;;;;;;;10.70;100.00;102497.22;5051150;28;20406;-50
2023/10/04 05:13:13;;;;;;;12.60;3.58;;;;;;;10.68;100.00;102504.44;5048239;28;20060;-51
2023/10/04 05:15:42;;;;;;;12.32;3.80;;;;;;;10.66;100.00;102523.09;5049256;28;20021;-53
2023/10/04 05:18:11;;;;;;;15.50;4.05;;;;;;;10.64;100.00;102529.41;5050739;28;20537;-51
2023/10/04 05:20:36;;;;;;;14.57;4.53;;;;;;;10.64;100.00;102532.06;5048215;28;20021;-50
2023/10/04 05:23:03;;;;;;;11.63;3.63;;;;;;;10.62;100.00;102531.31;5050681;28;20372;-49
2023/10/04 05:25:28;;;;;;;15.13;3.63;;;;;;;10.60;100.00;102533.19;5051311;28;20028;-51
2023/10/04 05:28:03;;;;;;;11.18;3.70;;;;;;;10.57;100.00;102539.50;5051434;28;20390;-50
2023/10/04 05:30:29;;;;;;;11.95;4.10;;;;;;;10.55;100.00;102539.56;5047793;28;20063;-51
2023/10/04 05:32:55;;;;;;;9.40;3.88;;;;;;;10.53;100.00;102530.81;5051308;28;20033;-49
2023/10/04 05:35:21;;;;;;;14.00;3.70;;;;;;;10.52;100.00;102526.47;5050127;28;20074;-49
2023/10/04 05:37:46;;;;;;;15.65;4.15;;;;;;;10.50;100.00;102536.28;5049811;28;20033;-50
2023/10/04 05:40:16;;;;;;;11.15;3.53;;;;;;;10.50;100.00;102538.94;5050925;28;20449;-49
2023/10/04 05:42:46;;;;;;;11.23;3.70;;;;;;;10.49;100.00;102541.66;5050584;28;20643;-50
2023/10/04 05:45:12;;;;;;;14.23;4.13;;;;;;;10.46;100.00;102536.50;5051729;28;20434;-51
2023/10/04 05:47:38;;;;;;;12.57;3.75;;;;;;;10.47;100.00;102543.53;5050866;28;20108;-52
2023/10/04 05:50:18;;;;;;;15.02;3.95;;;;;;;10.44;100.00;102549.00;5048131;28;20032;-51
2023/10/04 05:52:54;;;;;;;13.55;4.05;;;;;;;10.45;100.00;102548.06;5050915;28;20025;-51
2023/10/04 05:55:20;;;;;;;17.10;4.20;;;;;;;10.42;100.00;102551.72;5045311;28;20024;-49
2023/10/04 05:57:50;;;;;;;13.52;3.70;;;;;;;10.41;100.00;102550.03;5049914;28;20033;-49
2023/10/04 06:03:07;;;;;;;12.60;4.15;;;;;;;10.40;100.00;102556.25;5042684;28;20114;-50
2023/10/04 06:05:37;;;;;;;18.25;3.97;;;;;;;10.40;100.00;102564.22;5042628;28;20035;-49
2023/10/04 06:08:11;;;;;;;11.85;4.18;;;;;;;10.41;100.00;102560.66;5040004;28;20021;-49
2023/10/04 06:10:37;;;;;;;13.77;4.03;;;;;;;10.41;100.00;102557.13;5040052;28;20437;-50
2023/10/04 06:13:03;;;;;;;11.48;4.35;;;;;;;10.41;100.00;102565.97;5043433;28;20033;-49
2023/10/04 06:15:32;;;;;;;14.07;4.30;;;;;;;10.42;100.00;102566.81;5042329;28;20024;-50
2023/10/04 06:17:57;;;;;;;18.23;4.50;;;;;;;10.42;100.00;102570.31;5043079;28;20124;-51
2023/10/04 06:20:33;;;;;;;15.73;4.22;;;;;;;10.42;100.00;102570.31;5042550;28;20108;-50
2023/10/04 06:23:00;;;;;;;16.90;3.75;;;;;;;10.42;100.00;102565.00;5048966;28;20040;-50
2023/10/04 06:25:26;;;;;;;15.95;4.53;;;;;;;10.44;100.00;102572.91;5049747;28;20045;-49
2023/10/04 06:27:54;;;;;;;13.20;4.10;;;;;;;10.43;100.00;102576.53;5050699;28;20021;-51
2023/10/04 06:30:22;;;;;;;14.43;4.03;;;;;;;10.45;100.00;102580.81;5052711;28;20056;-50
2023/10/04 06:32:51;;;;;;;14.43;4.43;;;;;;;10.45;100.00;102578.16;5044415;28;20490;-50
2023/10/04 06:35:17;;;;;;;13.95;3.97;;;;;;;10.48;100.00;102579.81;5051661;28;20384;-50
2023/10/04 06:37:43;;;;;;;12.48;4.18;;;;;;;10.48;100.00;102580.66;5051710;28;20091;-50
2023/10/04 06:40:15;;;;;;;13.93;4.30;;;;;;;10.51;100.00;102577.00;5048724;28;20063;-50
2023/10/04 06:42:43;;;;;;;18.48;4.38;;;;;;;10.53;100.00;102583.94;5048744;28;20031;-50
2023/10/04 06:45:09;;;;;;;14.63;3.75;;;;;;;10.56;100.00;102590.94;5051648;28;20028;-49
2023/10/04 06:47:35;;;;;;;14.40;4.32;;;;;;;10.59;100.00;102589.91;5054126;28;20380;-49
2023/10/04 06:50:02;;;;;;;15.73;4.65;;;;;;;10.61;100.00;102591.56;5049187;28;20087;-50
2023/10/04 06:52:27;;;;;;;14.68;4.20;;;;;;;10.64;100.00;102599.38;5051436;28;20079;-49
2023/10/04 06:54:53;;;;;;;13.15;3.90;;;;;;;10.69;100.00;102602.69;5040754;28;20391;-51
2023/10/04 06:57:18;;;;;;;12.98;3.88;;;;;;;10.73;100.00;102600.72;5048858;28;20060;-50
2023/10/04 06:59:44;;;;;;;14.98;4.47;;;;;;;10.75;100.00;102596.19;5039504;28;20017;-50
2023/10/04 07:02:10;;;;;;;14.70;4.25;;;;;;;10.80;100.00;102603.94;5042893;28;20029;-53
2023/10/04 07:04:35;;;;;;;15.88;4.20;;;;;;;10.84;100.00;102595.75;5045454;28;20443;-52
2023/10/04 07:07:01;;;;;;;15.70;4.07;;;;;;;10.89;100.00;102591.06;5041395;28;20106;-50
2023/10/04 07:09:27;;;;;;;16.40;4.63;;;;;;;10.91;100.00;102594.50;5050611;28;20029;-51
2023/10/04 07:11:53;;;;;;;14.52;4.18;;;;;;;10.98;100.00;102592.38;5051458;28;20380;-50
2023/10/04 07:14:18;;;;;;;18.55;4.47;;;;;;;11.04;100.00;102591.22;5052787;28;20085;-48
2023/10/04 07:16:44;;;;;;;13.30;4.55;;;;;;;11.09;100.00;102591.84;5046780;28;20024;-50
2023/10/04 07:19:09;;;;;;;15.63;4.60;;;;;;;11.15;100.00;102585.34;5050155;28;20036;-49
2023/10/04 07:21:34;;;;;;;14.00;4.13;;;;;;;11.22;100.00;102594.75;5049567;28;20102;-49
2023/10/04 07:24:00;;;;;;;14.05;4.40;;;;;;;11.28;100.00;102592.63;5050274;28;20036;-51
2023/10/04 07:26:25;;;;;;;15.48;4.60;;;;;;;11.35;100.00;102600.28;5046144;28;20154;-50
2023/10/04 07:28:51;;;;;;;12.93;4.80;;;;;;;11.41;100.00;102590.19;5047010;28;20032;-49
2023/10/04 07:31:17;;;;;;;17.92;4.75;;;;;;;11.48;100.00;102596.06;5052248;28;20025;-49
2023/10/04 07:33:42;;;;;;;14.68;4.80;;;;;;;11.57;100.00;102602.69;5051096;28;20025;-50
2023/10/04 07:36:07;;;;;;;14.95;4.30;;;;;;;11.63;100.00;102600.56;5048597;28;20040;-52
2023/10/04 07:38:34;;;;;;;16.85;4.88;;;;;;;11.72;100.00;102607.19;5052489;28;20052;-50
2023/10/04 07:40:59;;;;;;;13.55;4.80;;;;;;;11.79;100.00;102613.03;5052538;28;20025;-50
2023/10/04 07:43:25;;;;;;;14.52;4.55;;;;;;;11.87;100.00;102607.31;5052365;28;20048;-50
2023/10/04 07:45:50;;;;;;;15.45;4.65;;;;;;;11.94;100.00;102611.41;5053573;28;20036;-50
2023/10/04 07:48:17;;;;;;;11.15;4.45;;;;;;;11.99;100.00;102617.31;5053560;28;20025;-50
2023/10/04 07:50:42;;;;;;;14.95;4.68;;;;;;;12.06;100.00;102615.19;5052468;28;20033;-51
2023/10/04 07:53:07;;;;;;;15.15;4.70;;;;;;;12.16;100.00;102625.28;5052691;28;20033;-50
2023/10/04 07:55:33;;;;;;;12.40;4.82;;;;;;;12.24;100.00;102624.88;5049998;28;20029;-51
2023/10/04 07:58:03;;;;;;;20.00;4.97;;;;;;;12.30;100.00;102624.50;5048163;28;20434;-52
2023/10/04 08:00:29;;;;;;;14.10;4.53;;;;;;;12.44;100.00;102628.19;5048109;28;20573;-50
2023/10/04 08:02:57;;;;;;;14.18;4.97;;;;;;;12.54;100.00;102626.72;5046971;28;20129;-50
2023/10/04 08:05:29;;;;;;;11.93;4.25;;;;;;;12.63;100.00;102631.56;5050991;28;20075;-50
2023/10/04 08:07:57;;;;;;;17.02;4.63;;;;;;;12.73;100.00;102634.56;5049631;28;20403;-50
2023/10/04 08:10:25;;;;;;;15.88;4.60;;;;;;;12.84;100.00;102640.16;5050410;28;20107;-50
2023/10/04 08:12:56;;;;;;;15.30;5.10;;;;;;;12.98;100.00;102627.81;5047708;28;20025;-50
2023/10/04 08:15:25;;;;;;;16.13;4.93;;;;;;;13.06;100.00;102633.56;5047632;28;20033;-50
2023/10/04 08:17:52;;;;;;;11.43;4.22;;;;;;;13.17;100.00;102636.44;5050389;28;20032;-49
2023/10/04 08:20:19;;;;;;;14.27;4.07;;;;;;;13.22;100.00;102641.50;5048167;28;20075;-49
2023/10/04 08:22:45;;;;;;;15.45;4.55;;;;;;;13.30;100.00;102641.91;5046510;28;20029;-49
2023/10/04 08:25:13;;;;;;;18.02;4.88;;;;;;;13.40;100.00;102644.94;5046752;28;20355;-50
2023/10/04 08:27:39;;;;;;;16.73;4.55;;;;;;;13.43;100.00;102645.59;5049219;28;20090;-50
2023/10/04 08:30:11;;;;;;;16.10;4.07;;;;;;;13.55;100.00;102648.50;5043682;28;20028;-49
2023/10/04 08:32:37;;;;;;;11.50;4.22;;;;;;;13.61;100.00;102645.47;5048566;28;20029;-49
2023/10/04 08:35:03;;;;;;;14.32;4.10;;;;;;;13.69;100.00;102640.50;5045387;28;20028;-50
2023/10/04 08:37:29;;;;;;;14.57;4.22;;;;;;;13.73;100.00;102641.19;5045664;28;20033;-50
2023/10/04 08:39:54;;;;;;;12.20;4.43;;;;;;;13.80;100.00;102642.50;5052031;28;20094;-49
2023/10/04 08:42:20;;;;;;;14.88;4.38;;;;;;;13.86;100.00;102651.00;5048719;28;20100;-50
2023/10/04 08:44:46;;;;;;;13.48;4.22;;;;;;;13.98;100.00;102651.22;5026456;28;20052;-51
2023/10/04 08:47:12;;;;;;;15.55;5.45;;;;;;;14.06;100.00;102649.75;5042442;28;20078;-49
2023/10/04 08:49:53;;;;;;;12.25;4.97;;;;;;;14.24;100.00;102658.44;5049565;28;20048;-49
2023/10/04 08:52:35;;;;;;;13.68;4.20;;;;;;;14.43;100.00;102659.94;5047618;28;20032;-49
2023/10/04 08:55:07;;;;;;;13.82;5.10;;;;;;;14.57;100.00;102654.56;5045068;28;20144;-50
2023/10/04 08:57:36;;;;;;;11.90;3.85;;;;;;;14.71;100.00;102652.84;5047910;28;20068;-50
2023/10/04 09:00:03;;;;;;;15.45;4.28;;;;;;;14.84;100.00;102653.75;5051629;28;20020;-52
2023/10/04 09:02:29;;;;;;;16.60;4.72;;;;;;;14.93;99.74;102647.78;5051482;28;20086;-53
2023/10/04 09:04:56;;;;;;;11.57;3.90;;;;;;;14.99;98.07;102660.75;5051506;28;20032;-51
2023/10/04 09:07:23;;;;;;;13.63;4.18;;;;;;;15.13;98.65;102658.97;5051514;28;20029;-49
2023/10/04 09:09:49;;;;;;;13.77;4.38;;;;;;;15.18;97.89;102664.88;5051865;28;20550;-51
2023/10/04 09:12:14;;;;;;;12.25;3.78;;;;;;;15.34;97.48;102659.38;5052118;28;20029;-51
2023/10/04 09:14:40;;;;;;;17.55;4.85;;;;;;;15.33;94.54;102661.16;5050027;28;20025;-51
2023/10/04 09:17:13;;;;;;;15.80;3.85;;;;;;;15.39;94.99;102661.69;5049518;28;20108;-49
2023/10/04 09:19:41;;;;;;;13.20;3.63;;;;;;;15.52;94.26;102668.81;5050098;28;20352;-52
2023/10/04 09:22:08;;;;;;;12.23;3.97;;;;;;;15.63;93.73;102653.81;5046365;28;20039;-50
2023/10/04 09:24:55;;;;;;;13.18;4.30;;;;;;;15.78;94.10;102651.94;5049932;28;20025;-50
2023/10/04 09:27:21;;;;;;;16.33;4.00;;;;;;;15.83;92.61;102645.28;5049787;28;20565;-49
2023/10/04 09:29:48;;;;;;;13.95;4.13;;;;;;;15.90;91.73;102645.69;5048715;28;20053;-49
2023/10/04 09:32:14;;;;;;;15.13;3.90;;;;;;;16.05;91.81;102643.75;5051936;28;20029;-50
2023/10/04 09:34:39;;;;;;;11.23;3.95;;;;;;;16.16;90.01;102653.72;5050588;28;20024;-50
2023/10/04 09:37:21;;;;;;;13.70;4.03;;;;;;;16.29;92.30;102651.88;5051438;28;20028;-50
2023/10/04 09:39:47;;;;;;;12.50;3.90;;;;;;;16.31;89.33;102660.66;5048935;28;20032;-50
2023/10/04 09:42:14;;;;;;;13.40;3.78;;;;;;;16.31;88.21;102663.34;5051774;28;20059;-50
2023/10/04 09:44:39;;;;;;;12.65;4.40;;;;;;;16.37;88.81;102665.59;5051399;28;20056;-50
2023/10/04 09:47:05;;;;;;;10.73;3.85;;;;;;;16.44;88.52;102663.31;5049768;28;20024;-50
2023/10/04 09:49:32;;;;;;;10.43;3.78;;;;;;;16.50;87.69;102664.69;5050038;28;20104;-49
2023/10/04 09:52:00;;;;;;;11.50;4.28;;;;;;;16.55;86.62;102666.06;5051466;28;20029;-49
2023/10/04 09:54:27;;;;;;;14.80;4.10;;;;;;;16.59;87.33;102664.03;5050676;28;20025;-49
2023/10/04 09:56:54;;;;;;;12.48;4.13;;;;;;;16.67;88.24;102653.59;5051558;28;20043;-49
2023/10/04 09:59:20;;;;;;;14.35;3.92;;;;;;;16.80;86.88;102656.19;5051513;28;20340;-49
2023/10/04 10:01:53;;;;;;;11.43;4.05;;;;;;;16.85;86.84;102654.06;5051585;28;20032;-49
2023/10/04 10:04:25;;;;;;;12.93;4.00;;;;;;;16.94;86.70;102660.59;5054426;28;20025;-49
2023/10/04 10:07:09;;;;;;;12.82;4.45;;;;;;;16.98;85.45;102670.97;5055174;28;20025;-50
2023/10/04 10:09:36;;;;;;;15.27;3.97;;;;;;;17.06;84.63;102666.84;5053689;28;20383;-50
2023/10/04 10:12:02;;;;;;;14.57;4.30;;;;;;;17.10;84.53;102674.56;5054345;28;20033;-50
2023/10/04 10:14:28;;;;;;;10.43;3.40;;;;;;;17.09;83.55;102674.69;5058812;28;20491;-49
2023/10/04 10:16:55;;;;;;;11.73;4.30;;;;;;;17.16;85.30;102666.03;5053335;28;20371;-51
2023/10/04 10:19:29;;;;;;;11.05;3.85;;;;;;;17.22;84.34;102667.41;5053817;28;20348;-49
2023/10/04 10:22:07;;;;;;;14.18;4.20;;;;;;;17.30;85.45;102670.38;5054754;28;20041;-49
2023/10/04 10:24:33;;;;;;;12.90;4.20;;;;;;;17.26;80.54;102673.41;5052373;28;20041;-50
2023/10/04 10:27:08;;;;;;;11.80;3.83;;;;;;;17.27;82.38;102669.72;5053024;28;20086;-49
2023/10/04 10:29:36;;;;;;;13.38;3.83;;;;;;;17.22;80.21;102656.69;5042066;28;20464;-50
2023/10/04 10:32:05;;;;;;;14.63;3.93;;;;;;;17.30;79.67;102664.13;5044801;28;20048;-49
2023/10/04 10:34:31;;;;;;;14.25;4.03;;;;;;;17.44;81.93;102658.56;5047927;28;20379;-49
2023/10/04 10:37:22;;;;;;;17.17;3.85;;;;;;;17.60;82.18;102654.69;5045482;28;20024;-49
2023/10/04 10:39:51;;;;;;;10.90;3.92;;;;;;;17.74;79.47;102662.53;5044678;28;20033;-49
2023/10/04 10:42:18;;;;;;;13.63;3.92;;;;;;;17.84;78.83;102652.75;5048656;28;20033;-49
2023/10/04 10:44:44;;;;;;;13.25;4.18;;;;;;;17.89;78.68;102655.97;5049280;28;20143;-49
2023/10/04 10:47:14;;;;;;;14.02;4.45;;;;;;;17.97;78.15;102651.81;5047290;28;20025;-48
2023/10/04 10:49:50;;;;;;;13.27;4.43;;;;;;;17.98;77.19;102650.84;5051302;28;20453;-48
2023/10/04 10:52:38;;;;;;;11.98;3.85;;;;;;;18.04;78.39;102655.75;5047477;28;20163;-49
2023/10/04 10:55:06;;;;;;;11.18;4.25;;;;;;;18.14;77.32;102662.09;5046662;28;20159;-48
2023/10/04 10:57:36;;;;;;;9.38;3.92;;;;;;;18.24;77.79;102660.38;5052059;28;20055;-49
2023/10/04 11:00:18;;;;;;;9.10;3.88;;;;;;;18.33;75.34;102650.69;5044404;28;20112;-49
2023/10/04 11:02:53;;;;;;;14.25;4.43;;;;;;;18.44;74.97;102648.00;5048352;28;20075;-49
2023/10/04 11:05:20;;;;;;;11.68;4.50;;;;;;;18.55;75.21;102644.44;5050934;28;20052;-53
2023/10/04 11:07:47;;;;;;;13.20;4.20;;;;;;;18.61;75.23;102635.84;5052337;28;20078;-48
2023/10/04 11:10:15;;;;;;;11.48;3.85;;;;;;;18.63;74.02;102636.56;5044333;28;20052;-49
2023/10/04 11:12:42;;;;;;;10.93;3.80;;;;;;;18.65;71.05;102631.94;5053145;28;20365;-50
2023/10/04 11:15:08;;;;;;;12.52;4.05;;;;;;;18.75;72.68;102623.94;5048180;28;20290;-50
2023/10/04 11:17:36;;;;;;;12.88;4.50;;;;;;;18.77;72.22;102623.78;5050767;28;20538;-50
2023/10/04 11:20:09;;;;;;;11.70;4.40;;;;;;;18.82;71.30;102621.59;5049779;28;20067;-49